sensor_id;sensor_type;location;lat;lon;timestamp;P1;durP1;ratioP1;P2;durP2;ratioP2
26702;SDS011;14316;51.074;3.704;2022-09-13T00:00:48;6.32;;;4.38;;
26702;SDS011;14316;51.074;3.704;2022-09-13T00:03:14;6.45;;;4.40;;
26702;SDS011;14316;51.074;3.704;2022-09-13T00:05:40;5.18;;;4.15;;
26702;SDS011;14316;51.074;3.704;2022-09-13T00:08:06;6.03;;;4.00;;
26702;SDS011;14316;51.074;3.704;2022-09-13T00:10:33;5.85;;;4.35;;
26702;SDS011;14316;51.074;3.704;2022-09-13T00:13:00;5.35;;;4.20;;
26702;SDS011;14316;51.074;3.704;2022-09-13T00:15:26;7.07;;;4.35;;
26702;SDS011;14316;51.074;3.704;2022-09-13T00:17:52;7.05;;;4.53;;
26702;SDS011;14316;51.074;3.704;2022-09-13T00:20:17;6.95;;;4.70;;
26702;SDS011;14316;51.074;3.704;2022-09-13T00:22:44;8.85;;;4.70;;
26702;SDS011;14316;51.074;3.704;2022-09-13T00:25:10;7.13;;;4.72;;
26702;SDS011;14316;51.074;3.704;2022-09-13T00:27:37;7.03;;;4.47;;
26702;SDS011;14316;51.074;3.704;2022-09-13T00:30:06;5.88;;;4.60;;
26702;SDS011;14316;51.074;3.704;2022-09-13T00:32:33;7.07;;;4.20;;
26702;SDS011;14316;51.074;3.704;2022-09-13T00:35:00;6.43;;;4.57;;
26702;SDS011;14316;51.074;3.704;2022-09-13T00:37:26;5.78;;;4.65;;
26702;SDS011;14316;51.074;3.704;2022-09-13T00:39:51;6.15;;;4.70;;
26702;SDS011;14316;51.074;3.704;2022-09-13T00:42:23;5.93;;;4.80;;
26702;SDS011;14316;51.074;3.704;2022-09-13T00:45:17;7.97;;;5.18;;
26702;SDS011;14316;51.074;3.704;2022-09-13T00:50:24;6.00;;;5.00;;
26702;SDS011;14316;51.074;3.704;2022-09-13T00:53:02;6.40;;;5.07;;
26702;SDS011;14316;51.074;3.704;2022-09-13T00:55:43;5.78;;;4.80;;
26702;SDS011;14316;51.074;3.704;2022-09-13T00:58:59;6.65;;;5.13;;
26702;SDS011;14316;51.074;3.704;2022-09-13T01:01:04;8.35;;;4.75;;
26702;SDS011;14316;51.074;3.704;2022-09-13T01:03:33;7.35;;;5.18;;
26702;SDS011;14316;51.074;3.704;2022-09-13T01:06:01;6.47;;;5.22;;
26702;SDS011;14316;51.074;3.704;2022-09-13T01:08:33;6.20;;;5.20;;
26702;SDS011;14316;51.074;3.704;2022-09-13T01:11:01;7.00;;;5.13;;
26702;SDS011;14316;51.074;3.704;2022-09-13T01:13:30;6.78;;;4.85;;
26702;SDS011;14316;51.074;3.704;2022-09-13T01:15:58;6.03;;;4.65;;
26702;SDS011;14316;51.074;3.704;2022-09-13T01:18:24;4.93;;;4.22;;
26702;SDS011;14316;51.074;3.704;2022-09-13T01:35:43;7.20;;;4.63;;
26702;SDS011;14316;51.074;3.704;2022-09-13T01:38:41;5.53;;;5.03;;
26702;SDS011;14316;51.074;3.704;2022-09-13T01:44:27;6.88;;;5.40;;
26702;SDS011;14316;51.074;3.704;2022-09-13T02:00:38;7.35;;;5.10;;
26702;SDS011;14316;51.074;3.704;2022-09-13T02:03:17;5.57;;;5.00;;
26702;SDS011;14316;51.074;3.704;2022-09-13T02:05:54;5.63;;;5.00;;
26702;SDS011;14316;51.074;3.704;2022-09-13T02:11:07;5.97;;;4.97;;
26702;SDS011;14316;51.074;3.704;2022-09-13T02:13:37;6.40;;;5.55;;
26702;SDS011;14316;51.074;3.704;2022-09-13T02:19:15;6.57;;;4.78;;
26702;SDS011;14316;51.074;3.704;2022-09-13T02:21:46;5.30;;;4.80;;
26702;SDS011;14316;51.074;3.704;2022-09-13T02:24:24;6.05;;;4.80;;
26702;SDS011;14316;51.074;3.704;2022-09-13T02:26:56;6.90;;;4.65;;
26702;SDS011;14316;51.074;3.704;2022-09-13T02:29:36;5.97;;;4.55;;
26702;SDS011;14316;51.074;3.704;2022-09-13T02:32:15;7.43;;;4.82;;
26702;SDS011;14316;51.074;3.704;2022-09-13T02:34:50;5.15;;;4.65;;
26702;SDS011;14316;51.074;3.704;2022-09-13T02:37:21;8.05;;;4.95;;
26702;SDS011;14316;51.074;3.704;2022-09-13T02:39:52;6.13;;;5.43;;
26702;SDS011;14316;51.074;3.704;2022-09-13T02:42:30;7.82;;;5.15;;
26702;SDS011;14316;51.074;3.704;2022-09-13T02:45:00;5.72;;;5.22;;
26702;SDS011;14316;51.074;3.704;2022-09-13T02:53:38;7.13;;;5.53;;
26702;SDS011;14316;51.074;3.704;2022-09-13T02:56:23;8.25;;;6.55;;
26702;SDS011;14316;51.074;3.704;2022-09-13T02:58:52;7.35;;;6.65;;
26702;SDS011;14316;51.074;3.704;2022-09-13T03:01:26;8.38;;;6.85;;
26702;SDS011;14316;51.074;3.704;2022-09-13T03:03:52;7.45;;;6.40;;
26702;SDS011;14316;51.074;3.704;2022-09-13T03:06:24;7.85;;;6.70;;
26702;SDS011;14316;51.074;3.704;2022-09-13T03:08:52;10.98;;;7.28;;
26702;SDS011;14316;51.074;3.704;2022-09-13T03:14:24;7.70;;;6.90;;
26702;SDS011;14316;51.074;3.704;2022-09-13T03:19:39;8.32;;;6.70;;
26702;SDS011;14316;51.074;3.704;2022-09-13T03:30:31;9.40;;;7.60;;
26702;SDS011;14316;51.074;3.704;2022-09-13T03:33:07;10.82;;;7.50;;
26702;SDS011;14316;51.074;3.704;2022-09-13T03:38:18;6.78;;;6.05;;
26702;SDS011;14316;51.074;3.704;2022-09-13T03:40:58;7.38;;;6.60;;
26702;SDS011;14316;51.074;3.704;2022-09-13T03:43:30;7.93;;;6.82;;
26702;SDS011;14316;51.074;3.704;2022-09-13T03:46:04;8.35;;;6.65;;
26702;SDS011;14316;51.074;3.704;2022-09-13T03:48:37;9.48;;;7.85;;
26702;SDS011;14316;51.074;3.704;2022-09-13T03:51:05;11.27;;;7.72;;
26702;SDS011;14316;51.074;3.704;2022-09-13T03:53:32;8.55;;;7.32;;
26702;SDS011;14316;51.074;3.704;2022-09-13T03:56:15;8.10;;;6.90;;
26702;SDS011;14316;51.074;3.704;2022-09-13T03:58:42;7.85;;;6.85;;
26702;SDS011;14316;51.074;3.704;2022-09-13T04:01:08;8.70;;;7.18;;
26702;SDS011;14316;51.074;3.704;2022-09-13T04:03:35;8.45;;;6.70;;
26702;SDS011;14316;51.074;3.704;2022-09-13T04:06:02;9.20;;;7.40;;
26702;SDS011;14316;51.074;3.704;2022-09-13T04:08:28;9.57;;;7.07;;
26702;SDS011;14316;51.074;3.704;2022-09-13T04:10:53;7.53;;;6.40;;
26702;SDS011;14316;51.074;3.704;2022-09-13T04:13:20;8.80;;;6.57;;
26702;SDS011;14316;51.074;3.704;2022-09-13T04:15:46;7.47;;;6.80;;
26702;SDS011;14316;51.074;3.704;2022-09-13T04:18:14;9.82;;;7.32;;
26702;SDS011;14316;51.074;3.704;2022-09-13T04:20:40;8.23;;;7.07;;
26702;SDS011;14316;51.074;3.704;2022-09-13T04:23:06;8.10;;;7.30;;
26702;SDS011;14316;51.074;3.704;2022-09-13T04:25:32;7.80;;;7.00;;
26702;SDS011;14316;51.074;3.704;2022-09-13T04:27:58;8.93;;;7.90;;
26702;SDS011;14316;51.074;3.704;2022-09-13T04:30:24;7.95;;;7.15;;
26702;SDS011;14316;51.074;3.704;2022-09-13T04:32:50;9.30;;;6.57;;
26702;SDS011;14316;51.074;3.704;2022-09-13T04:35:16;9.38;;;8.00;;
26702;SDS011;14316;51.074;3.704;2022-09-13T04:37:44;10.23;;;7.38;;
26702;SDS011;14316;51.074;3.704;2022-09-13T04:40:10;8.30;;;7.50;;
26702;SDS011;14316;51.074;3.704;2022-09-13T04:42:37;9.07;;;7.25;;
26702;SDS011;14316;51.074;3.704;2022-09-13T04:45:02;11.68;;;8.25;;
26702;SDS011;14316;51.074;3.704;2022-09-13T04:47:28;11.55;;;8.30;;
26702;SDS011;14316;51.074;3.704;2022-09-13T04:49:55;8.55;;;7.38;;
26702;SDS011;14316;51.074;3.704;2022-09-13T04:52:21;9.93;;;7.82;;
26702;SDS011;14316;51.074;3.704;2022-09-13T04:54:46;8.63;;;7.68;;
26702;SDS011;14316;51.074;3.704;2022-09-13T04:57:15;11.15;;;7.25;;
26702;SDS011;14316;51.074;3.704;2022-09-13T04:59:41;9.98;;;7.70;;
26702;SDS011;14316;51.074;3.704;2022-09-13T05:02:08;8.02;;;7.22;;
26702;SDS011;14316;51.074;3.704;2022-09-13T05:04:34;8.93;;;7.95;;
26702;SDS011;14316;51.074;3.704;2022-09-13T05:06:59;9.27;;;7.60;;
26702;SDS011;14316;51.074;3.704;2022-09-13T05:09:25;11.40;;;7.00;;
26702;SDS011;14316;51.074;3.704;2022-09-13T05:11:51;10.13;;;7.25;;
26702;SDS011;14316;51.074;3.704;2022-09-13T05:14:17;8.00;;;7.22;;
26702;SDS011;14316;51.074;3.704;2022-09-13T05:16:42;11.75;;;7.68;;
26702;SDS011;14316;51.074;3.704;2022-09-13T05:19:09;10.13;;;7.65;;
26702;SDS011;14316;51.074;3.704;2022-09-13T05:21:36;13.02;;;7.40;;
26702;SDS011;14316;51.074;3.704;2022-09-13T05:24:01;11.68;;;7.38;;
26702;SDS011;14316;51.074;3.704;2022-09-13T05:26:27;11.05;;;8.95;;
26702;SDS011;14316;51.074;3.704;2022-09-13T05:28:55;8.00;;;7.20;;
26702;SDS011;14316;51.074;3.704;2022-09-13T05:31:23;8.85;;;7.20;;
26702;SDS011;14316;51.074;3.704;2022-09-13T05:33:57;8.02;;;7.22;;
26702;SDS011;14316;51.074;3.704;2022-09-13T05:36:28;8.70;;;6.88;;
26702;SDS011;14316;51.074;3.704;2022-09-13T05:38:55;18.73;;;8.15;;
26702;SDS011;14316;51.074;3.704;2022-09-13T05:41:21;10.60;;;8.50;;
26702;SDS011;14316;51.074;3.704;2022-09-13T05:43:47;12.05;;;7.85;;
26702;SDS011;14316;51.074;3.704;2022-09-13T05:46:16;15.15;;;8.43;;
26702;SDS011;14316;51.074;3.704;2022-09-13T05:48:43;9.93;;;7.55;;
26702;SDS011;14316;51.074;3.704;2022-09-13T05:51:14;8.50;;;7.30;;
26702;SDS011;14316;51.074;3.704;2022-09-13T05:53:45;11.60;;;7.85;;
26702;SDS011;14316;51.074;3.704;2022-09-13T05:56:16;12.27;;;7.75;;
26702;SDS011;14316;51.074;3.704;2022-09-13T05:58:44;8.75;;;7.25;;
26702;SDS011;14316;51.074;3.704;2022-09-13T06:01:15;10.55;;;8.25;;
26702;SDS011;14316;51.074;3.704;2022-09-13T06:03:46;11.40;;;8.68;;
26702;SDS011;14316;51.074;3.704;2022-09-13T06:06:15;13.30;;;9.43;;
26702;SDS011;14316;51.074;3.704;2022-09-13T06:08:42;12.63;;;10.05;;
26702;SDS011;14316;51.074;3.704;2022-09-13T06:11:08;11.88;;;8.63;;
26702;SDS011;14316;51.074;3.704;2022-09-13T06:13:36;11.25;;;8.27;;
26702;SDS011;14316;51.074;3.704;2022-09-13T06:16:04;10.57;;;8.80;;
26702;SDS011;14316;51.074;3.704;2022-09-13T06:18:31;12.18;;;8.82;;
26702;SDS011;14316;51.074;3.704;2022-09-13T06:20:58;9.82;;;8.25;;
26702;SDS011;14316;51.074;3.704;2022-09-13T06:23:26;13.65;;;10.23;;
26702;SDS011;14316;51.074;3.704;2022-09-13T06:26:02;12.32;;;9.60;;
26702;SDS011;14316;51.074;3.704;2022-09-13T06:28:33;13.98;;;10.25;;
26702;SDS011;14316;51.074;3.704;2022-09-13T06:31:03;15.63;;;10.93;;
26702;SDS011;14316;51.074;3.704;2022-09-13T06:33:31;16.13;;;11.38;;
26702;SDS011;14316;51.074;3.704;2022-09-13T06:36:01;13.88;;;10.50;;
26702;SDS011;14316;51.074;3.704;2022-09-13T06:38:28;17.98;;;10.93;;
26702;SDS011;14316;51.074;3.704;2022-09-13T06:40:58;13.05;;;10.60;;
26702;SDS011;14316;51.074;3.704;2022-09-13T06:43:25;15.05;;;10.32;;
26702;SDS011;14316;51.074;3.704;2022-09-13T06:45:51;17.77;;;10.73;;
26702;SDS011;14316;51.074;3.704;2022-09-13T06:48:17;12.30;;;10.75;;
26702;SDS011;14316;51.074;3.704;2022-09-13T06:50:43;14.20;;;11.05;;
26702;SDS011;14316;51.074;3.704;2022-09-13T06:53:09;10.98;;;9.23;;
26702;SDS011;14316;51.074;3.704;2022-09-13T06:55:36;14.40;;;10.63;;
26702;SDS011;14316;51.074;3.704;2022-09-13T06:58:02;10.63;;;9.23;;
26702;SDS011;14316;51.074;3.704;2022-09-13T07:00:27;13.57;;;10.15;;
26702;SDS011;14316;51.074;3.704;2022-09-13T07:02:53;13.93;;;10.63;;
26702;SDS011;14316;51.074;3.704;2022-09-13T07:05:19;12.05;;;9.52;;
26702;SDS011;14316;51.074;3.704;2022-09-13T07:07:45;10.32;;;8.82;;
26702;SDS011;14316;51.074;3.704;2022-09-13T07:10:11;18.40;;;10.18;;
26702;SDS011;14316;51.074;3.704;2022-09-13T07:12:39;15.55;;;10.63;;
26702;SDS011;14316;51.074;3.704;2022-09-13T07:15:05;14.10;;;10.25;;
26702;SDS011;14316;51.074;3.704;2022-09-13T07:17:31;13.85;;;10.30;;
26702;SDS011;14316;51.074;3.704;2022-09-13T07:19:57;14.52;;;10.85;;
26702;SDS011;14316;51.074;3.704;2022-09-13T07:22:22;12.93;;;11.73;;
26702;SDS011;14316;51.074;3.704;2022-09-13T07:24:51;16.42;;;12.52;;
26702;SDS011;14316;51.074;3.704;2022-09-13T07:27:18;15.48;;;12.07;;
26702;SDS011;14316;51.074;3.704;2022-09-13T07:29:44;17.42;;;13.93;;
26702;SDS011;14316;51.074;3.704;2022-09-13T07:32:10;18.42;;;14.00;;
26702;SDS011;14316;51.074;3.704;2022-09-13T07:34:35;16.65;;;13.10;;
26702;SDS011;14316;51.074;3.704;2022-09-13T07:37:01;19.45;;;13.45;;
26702;SDS011;14316;51.074;3.704;2022-09-13T07:39:27;17.52;;;12.65;;
26702;SDS011;14316;51.074;3.704;2022-09-13T07:41:52;19.48;;;14.02;;
26702;SDS011;14316;51.074;3.704;2022-09-13T07:44:18;21.15;;;15.43;;
26702;SDS011;14316;51.074;3.704;2022-09-13T07:46:44;17.83;;;13.98;;
26702;SDS011;14316;51.074;3.704;2022-09-13T07:49:13;20.75;;;16.52;;
26702;SDS011;14316;51.074;3.704;2022-09-13T07:51:41;21.15;;;16.25;;
26702;SDS011;14316;51.074;3.704;2022-09-13T07:54:15;27.25;;;16.60;;
26702;SDS011;14316;51.074;3.704;2022-09-13T07:56:42;26.38;;;16.27;;
26702;SDS011;14316;51.074;3.704;2022-09-13T07:59:15;19.38;;;16.20;;
26702;SDS011;14316;51.074;3.704;2022-09-13T08:01:41;24.77;;;17.95;;
26702;SDS011;14316;51.074;3.704;2022-09-13T08:04:10;17.80;;;15.90;;
26702;SDS011;14316;51.074;3.704;2022-09-13T08:06:38;20.08;;;17.67;;
26702;SDS011;14316;51.074;3.704;2022-09-13T08:09:05;23.70;;;20.02;;
26702;SDS011;14316;51.074;3.704;2022-09-13T08:11:34;26.25;;;21.50;;
26702;SDS011;14316;51.074;3.704;2022-09-13T08:14:03;22.63;;;20.23;;
26702;SDS011;14316;51.074;3.704;2022-09-13T08:16:30;21.60;;;19.27;;
26702;SDS011;14316;51.074;3.704;2022-09-13T08:18:57;23.33;;;20.80;;
26702;SDS011;14316;51.074;3.704;2022-09-13T08:21:25;17.17;;;14.85;;
26702;SDS011;14316;51.074;3.704;2022-09-13T08:23:55;17.90;;;13.70;;
26702;SDS011;14316;51.074;3.704;2022-09-13T08:26:23;15.50;;;13.80;;
26702;SDS011;14316;51.074;3.704;2022-09-13T08:28:53;18.08;;;14.85;;
26702;SDS011;14316;51.074;3.704;2022-09-13T08:31:21;21.92;;;15.63;;
26702;SDS011;14316;51.074;3.704;2022-09-13T08:33:47;21.63;;;17.55;;
26702;SDS011;14316;51.074;3.704;2022-09-13T08:36:13;24.90;;;19.30;;
26702;SDS011;14316;51.074;3.704;2022-09-13T08:38:48;23.65;;;19.23;;
26702;SDS011;14316;51.074;3.704;2022-09-13T08:46:27;23.15;;;18.90;;
26702;SDS011;14316;51.074;3.704;2022-09-13T08:48:58;32.63;;;25.52;;
26702;SDS011;14316;51.074;3.704;2022-09-13T08:51:31;40.85;;;29.75;;
26702;SDS011;14316;51.074;3.704;2022-09-13T08:54:12;40.92;;;31.88;;
26702;SDS011;14316;51.074;3.704;2022-09-13T08:57:24;36.83;;;32.75;;
26702;SDS011;14316;51.074;3.704;2022-09-13T08:59:59;35.67;;;30.00;;
26702;SDS011;14316;51.074;3.704;2022-09-13T09:05:26;33.33;;;23.85;;
26702;SDS011;14316;51.074;3.704;2022-09-13T09:10:28;30.98;;;25.05;;
26702;SDS011;14316;51.074;3.704;2022-09-13T09:13:20;30.70;;;22.58;;
26702;SDS011;14316;51.074;3.704;2022-09-13T09:16:00;26.48;;;22.80;;
26702;SDS011;14316;51.074;3.704;2022-09-13T09:18:32;35.25;;;25.35;;
26702;SDS011;14316;51.074;3.704;2022-09-13T09:21:01;29.95;;;22.15;;
26702;SDS011;14316;51.074;3.704;2022-09-13T09:26:28;36.10;;;21.98;;
26702;SDS011;14316;51.074;3.704;2022-09-13T09:34:12;28.02;;;21.45;;
26702;SDS011;14316;51.074;3.704;2022-09-13T09:37:24;23.23;;;20.75;;
26702;SDS011;14316;51.074;3.704;2022-09-13T09:39:53;25.55;;;19.75;;
26702;SDS011;14316;51.074;3.704;2022-09-13T09:42:23;20.30;;;18.10;;
26702;SDS011;14316;51.074;3.704;2022-09-13T09:44:54;22.35;;;17.75;;
26702;SDS011;14316;51.074;3.704;2022-09-13T09:47:32;26.15;;;17.33;;
26702;SDS011;14316;51.074;3.704;2022-09-13T09:50:09;21.00;;;16.08;;
26702;SDS011;14316;51.074;3.704;2022-09-13T09:55:34;17.85;;;13.77;;
26702;SDS011;14316;51.074;3.704;2022-09-13T09:58:16;26.88;;;20.25;;
26702;SDS011;14316;51.074;3.704;2022-09-13T10:00:54;25.67;;;19.50;;
26702;SDS011;14316;51.074;3.704;2022-09-13T10:03:25;24.75;;;20.35;;
26702;SDS011;14316;51.074;3.704;2022-09-13T10:06:13;20.38;;;18.38;;
26702;SDS011;14316;51.074;3.704;2022-09-13T10:08:43;21.70;;;15.90;;
26702;SDS011;14316;51.074;3.704;2022-09-13T10:11:18;17.15;;;14.52;;
26702;SDS011;14316;51.074;3.704;2022-09-13T10:13:59;16.05;;;11.75;;
26702;SDS011;14316;51.074;3.704;2022-09-13T10:16:29;12.02;;;10.60;;
26702;SDS011;14316;51.074;3.704;2022-09-13T10:21:58;22.52;;;16.38;;
26702;SDS011;14316;51.074;3.704;2022-09-13T10:24:24;16.85;;;15.15;;
26702;SDS011;14316;51.074;3.704;2022-09-13T10:26:52;14.85;;;11.25;;
26702;SDS011;14316;51.074;3.704;2022-09-13T10:29:18;19.40;;;15.70;;
26702;SDS011;14316;51.074;3.704;2022-09-13T10:31:44;21.88;;;17.42;;
26702;SDS011;14316;51.074;3.704;2022-09-13T10:34:32;20.25;;;16.38;;
26702;SDS011;14316;51.074;3.704;2022-09-13T10:40:07;18.85;;;15.52;;
26702;SDS011;14316;51.074;3.704;2022-09-13T10:45:25;22.05;;;19.33;;
26702;SDS011;14316;51.074;3.704;2022-09-13T10:47:54;12.88;;;11.20;;
26702;SDS011;14316;51.074;3.704;2022-09-13T10:50:29;12.65;;;11.27;;
26702;SDS011;14316;51.074;3.704;2022-09-13T10:52:58;14.13;;;9.95;;
26702;SDS011;14316;51.074;3.704;2022-09-13T10:55:26;14.07;;;11.65;;
26702;SDS011;14316;51.074;3.704;2022-09-13T10:58:16;15.43;;;12.20;;
26702;SDS011;14316;51.074;3.704;2022-09-13T11:25:02;13.68;;;9.63;;
26702;SDS011;14316;51.074;3.704;2022-09-13T11:30:47;10.77;;;8.57;;
26702;SDS011;14316;51.074;3.704;2022-09-13T11:47:07;10.77;;;7.00;;
26702;SDS011;14316;51.074;3.704;2022-09-13T11:52:52;8.43;;;6.65;;
26702;SDS011;14316;51.074;3.704;2022-09-13T11:55:48;13.05;;;11.35;;
26702;SDS011;14316;51.074;3.704;2022-09-13T12:01:27;10.18;;;7.45;;
26702;SDS011;14316;51.074;3.704;2022-09-13T12:03:58;10.95;;;6.93;;
26702;SDS011;14316;51.074;3.704;2022-09-13T12:06:32;16.05;;;8.45;;
26702;SDS011;14316;51.074;3.704;2022-09-13T12:09:05;9.82;;;6.60;;
26702;SDS011;14316;51.074;3.704;2022-09-13T12:12:04;13.13;;;7.73;;
26702;SDS011;14316;51.074;3.704;2022-09-13T12:14:48;10.38;;;5.47;;
26702;SDS011;14316;51.074;3.704;2022-09-13T12:22:52;10.05;;;7.30;;
26702;SDS011;14316;51.074;3.704;2022-09-13T12:25:23;9.32;;;7.40;;
26702;SDS011;14316;51.074;3.704;2022-09-13T12:27:55;8.18;;;6.53;;
26702;SDS011;14316;51.074;3.704;2022-09-13T12:30:49;10.70;;;6.90;;
26702;SDS011;14316;51.074;3.704;2022-09-13T12:33:16;9.95;;;8.07;;
26702;SDS011;14316;51.074;3.704;2022-09-13T12:41:33;13.70;;;9.55;;
26702;SDS011;14316;51.074;3.704;2022-09-13T12:44:26;17.30;;;10.07;;
26702;SDS011;14316;51.074;3.704;2022-09-13T12:47:10;13.40;;;10.18;;
26702;SDS011;14316;51.074;3.704;2022-09-13T12:52:47;19.85;;;10.85;;
26702;SDS011;14316;51.074;3.704;2022-09-13T12:55:36;14.10;;;10.40;;
26702;SDS011;14316;51.074;3.704;2022-09-13T13:00:46;16.48;;;11.65;;
26702;SDS011;14316;51.074;3.704;2022-09-13T13:03:30;14.93;;;11.05;;
26702;SDS011;14316;51.074;3.704;2022-09-13T13:08:49;11.27;;;9.70;;
26702;SDS011;14316;51.074;3.704;2022-09-13T13:11:19;12.45;;;10.65;;
26702;SDS011;14316;51.074;3.704;2022-09-13T13:13:55;11.98;;;9.90;;
26702;SDS011;14316;51.074;3.704;2022-09-13T13:16:34;11.80;;;9.90;;
26702;SDS011;14316;51.074;3.704;2022-09-13T13:21:53;14.80;;;10.02;;
26702;SDS011;14316;51.074;3.704;2022-09-13T13:26:49;13.13;;;10.13;;
26702;SDS011;14316;51.074;3.704;2022-09-13T13:29:20;11.43;;;8.90;;
26702;SDS011;14316;51.074;3.704;2022-09-13T13:36:48;9.25;;;7.78;;
26702;SDS011;14316;51.074;3.704;2022-09-13T13:46:44;7.40;;;6.70;;
26702;SDS011;14316;51.074;3.704;2022-09-13T14:00:11;8.65;;;7.63;;
26702;SDS011;14316;51.074;3.704;2022-09-13T14:02:45;11.15;;;9.50;;
26702;SDS011;14316;51.074;3.704;2022-09-13T14:19:42;12.73;;;10.65;;
26702;SDS011;14316;51.074;3.704;2022-09-13T14:22:18;12.90;;;11.32;;
26702;SDS011;14316;51.074;3.704;2022-09-13T14:24:55;14.63;;;13.23;;
26702;SDS011;14316;51.074;3.704;2022-09-13T14:29:51;12.00;;;10.80;;
26702;SDS011;14316;51.074;3.704;2022-09-13T14:32:23;14.90;;;11.88;;
26702;SDS011;14316;51.074;3.704;2022-09-13T14:37:25;14.18;;;12.73;;
26702;SDS011;14316;51.074;3.704;2022-09-13T14:39:57;12.82;;;11.52;;
26702;SDS011;14316;51.074;3.704;2022-09-13T14:42:25;12.50;;;11.27;;
26702;SDS011;14316;51.074;3.704;2022-09-13T14:44:51;12.93;;;11.75;;
26702;SDS011;14316;51.074;3.704;2022-09-13T14:50:14;13.88;;;12.48;;
26702;SDS011;14316;51.074;3.704;2022-09-13T14:55:11;14.05;;;12.45;;
26702;SDS011;14316;51.074;3.704;2022-09-13T15:00:15;12.10;;;10.90;;
26702;SDS011;14316;51.074;3.704;2022-09-13T15:02:45;15.18;;;13.57;;
26702;SDS011;14316;51.074;3.704;2022-09-13T15:07:41;14.95;;;13.57;;
26702;SDS011;14316;51.074;3.704;2022-09-13T15:10:18;16.60;;;15.00;;
26702;SDS011;14316;51.074;3.704;2022-09-13T15:12:54;15.00;;;13.60;;
26702;SDS011;14316;51.074;3.704;2022-09-13T15:18:05;15.82;;;14.30;;
26702;SDS011;14316;51.074;3.704;2022-09-13T15:23:35;16.13;;;14.63;;
26702;SDS011;14316;51.074;3.704;2022-09-13T15:26:04;14.35;;;13.02;;
26702;SDS011;14316;51.074;3.704;2022-09-13T15:28:49;14.07;;;12.77;;
26702;SDS011;14316;51.074;3.704;2022-09-13T15:31:29;14.23;;;12.93;;
26702;SDS011;14316;51.074;3.704;2022-09-13T15:34:09;13.90;;;12.60;;
26702;SDS011;14316;51.074;3.704;2022-09-13T15:36:36;13.65;;;12.23;;
26702;SDS011;14316;51.074;3.704;2022-09-13T15:41:42;14.00;;;12.70;;
26702;SDS011;14316;51.074;3.704;2022-09-13T15:44:17;13.02;;;11.73;;
26702;SDS011;14316;51.074;3.704;2022-09-13T15:46:47;14.52;;;13.18;;
26702;SDS011;14316;51.074;3.704;2022-09-13T15:49:24;15.02;;;13.43;;
26702;SDS011;14316;51.074;3.704;2022-09-13T15:51:52;12.60;;;11.35;;
26702;SDS011;14316;51.074;3.704;2022-09-13T15:54:19;12.10;;;10.88;;
26702;SDS011;14316;51.074;3.704;2022-09-13T15:56:48;13.10;;;10.32;;
26702;SDS011;14316;51.074;3.704;2022-09-13T15:59:18;9.48;;;8.48;;
26702;SDS011;14316;51.074;3.704;2022-09-13T16:01:49;10.45;;;9.02;;
26702;SDS011;14316;51.074;3.704;2022-09-13T16:04:15;9.88;;;8.75;;
26702;SDS011;14316;51.074;3.704;2022-09-13T16:06:41;10.13;;;8.30;;
26702;SDS011;14316;51.074;3.704;2022-09-13T16:09:15;8.85;;;7.95;;
26702;SDS011;14316;51.074;3.704;2022-09-13T16:11:43;10.60;;;8.45;;
26702;SDS011;14316;51.074;3.704;2022-09-13T16:14:09;15.98;;;6.93;;
26702;SDS011;14316;51.074;3.704;2022-09-13T16:16:35;7.82;;;7.10;;
26702;SDS011;14316;51.074;3.704;2022-09-13T16:19:00;7.72;;;6.43;;
26702;SDS011;14316;51.074;3.704;2022-09-13T16:21:26;8.13;;;6.55;;
26702;SDS011;14316;51.074;3.704;2022-09-13T16:23:53;9.77;;;6.18;;
26702;SDS011;14316;51.074;3.704;2022-09-13T16:26:19;8.05;;;5.47;;
26702;SDS011;14316;51.074;3.704;2022-09-13T16:28:45;8.52;;;5.68;;
26702;SDS011;14316;51.074;3.704;2022-09-13T16:31:11;9.02;;;5.60;;
26702;SDS011;14316;51.074;3.704;2022-09-13T16:33:40;12.07;;;5.82;;
26702;SDS011;14316;51.074;3.704;2022-09-13T16:36:07;10.05;;;5.60;;
26702;SDS011;14316;51.074;3.704;2022-09-13T16:38:35;12.68;;;6.30;;
26702;SDS011;14316;51.074;3.704;2022-09-13T16:41:03;12.75;;;6.55;;
26702;SDS011;14316;51.074;3.704;2022-09-13T16:43:29;7.32;;;6.22;;
26702;SDS011;14316;51.074;3.704;2022-09-13T16:45:57;7.60;;;5.65;;
26702;SDS011;14316;51.074;3.704;2022-09-13T16:48:23;7.15;;;4.85;;
26702;SDS011;14316;51.074;3.704;2022-09-13T16:50:48;7.72;;;5.72;;
26702;SDS011;14316;51.074;3.704;2022-09-13T16:53:15;5.70;;;5.18;;
26702;SDS011;14316;51.074;3.704;2022-09-13T16:55:40;7.28;;;4.72;;
26702;SDS011;14316;51.074;3.704;2022-09-13T16:58:06;7.50;;;5.28;;
26702;SDS011;14316;51.074;3.704;2022-09-13T17:00:32;8.40;;;5.20;;
26702;SDS011;14316;51.074;3.704;2022-09-13T17:02:58;9.95;;;4.95;;
26702;SDS011;14316;51.074;3.704;2022-09-13T17:05:24;7.05;;;4.70;;
26702;SDS011;14316;51.074;3.704;2022-09-13T17:07:50;8.02;;;5.03;;
26702;SDS011;14316;51.074;3.704;2022-09-13T17:10:17;12.23;;;5.57;;
26702;SDS011;14316;51.074;3.704;2022-09-13T17:12:43;9.27;;;5.85;;
26702;SDS011;14316;51.074;3.704;2022-09-13T17:15:09;8.02;;;5.30;;
26702;SDS011;14316;51.074;3.704;2022-09-13T17:17:35;5.57;;;4.57;;
26702;SDS011;14316;51.074;3.704;2022-09-13T17:20:03;8.88;;;6.10;;
26702;SDS011;14316;51.074;3.704;2022-09-13T17:22:32;6.70;;;5.35;;
26702;SDS011;14316;51.074;3.704;2022-09-13T17:24:58;7.85;;;5.10;;
26702;SDS011;14316;51.074;3.704;2022-09-13T17:27:25;8.27;;;5.07;;
26702;SDS011;14316;51.074;3.704;2022-09-13T17:29:51;7.80;;;6.18;;
26702;SDS011;14316;51.074;3.704;2022-09-13T17:32:17;10.60;;;6.20;;
26702;SDS011;14316;51.074;3.704;2022-09-13T17:34:44;11.55;;;6.07;;
26702;SDS011;14316;51.074;3.704;2022-09-13T17:37:13;11.27;;;6.85;;
26702;SDS011;14316;51.074;3.704;2022-09-13T17:39:41;8.60;;;5.85;;
26702;SDS011;14316;51.074;3.704;2022-09-13T17:42:07;8.40;;;5.80;;
26702;SDS011;14316;51.074;3.704;2022-09-13T17:44:33;9.77;;;5.28;;
26702;SDS011;14316;51.074;3.704;2022-09-13T17:46:58;11.82;;;5.85;;
26702;SDS011;14316;51.074;3.704;2022-09-13T17:49:26;14.35;;;6.20;;
26702;SDS011;14316;51.074;3.704;2022-09-13T17:51:51;7.65;;;5.70;;
26702;SDS011;14316;51.074;3.704;2022-09-13T17:54:18;8.57;;;5.60;;
26702;SDS011;14316;51.074;3.704;2022-09-13T17:56:44;10.70;;;5.90;;
26702;SDS011;14316;51.074;3.704;2022-09-13T17:59:11;11.70;;;6.03;;
26702;SDS011;14316;51.074;3.704;2022-09-13T18:01:40;8.77;;;5.75;;
26702;SDS011;14316;51.074;3.704;2022-09-13T18:04:07;8.35;;;5.72;;
26702;SDS011;14316;51.074;3.704;2022-09-13T18:06:34;8.80;;;5.53;;
26702;SDS011;14316;51.074;3.704;2022-09-13T18:09:01;9.52;;;6.70;;
26702;SDS011;14316;51.074;3.704;2022-09-13T18:11:27;15.45;;;8.73;;
26702;SDS011;14316;51.074;3.704;2022-09-13T18:13:52;14.18;;;8.10;;
26702;SDS011;14316;51.074;3.704;2022-09-13T18:16:20;11.75;;;7.63;;
26702;SDS011;14316;51.074;3.704;2022-09-13T18:18:48;9.98;;;6.70;;
26702;SDS011;14316;51.074;3.704;2022-09-13T18:21:15;9.50;;;6.88;;
26702;SDS011;14316;51.074;3.704;2022-09-13T18:23:43;10.15;;;5.72;;
26702;SDS011;14316;51.074;3.704;2022-09-13T18:26:10;12.25;;;5.13;;
26702;SDS011;14316;51.074;3.704;2022-09-13T18:28:38;8.07;;;4.90;;
26702;SDS011;14316;51.074;3.704;2022-09-13T18:31:05;9.63;;;4.72;;
26702;SDS011;14316;51.074;3.704;2022-09-13T18:33:33;9.27;;;4.80;;
26702;SDS011;14316;51.074;3.704;2022-09-13T18:36:10;7.18;;;4.57;;
26702;SDS011;14316;51.074;3.704;2022-09-13T18:38:41;11.70;;;4.55;;
26702;SDS011;14316;51.074;3.704;2022-09-13T18:41:09;8.32;;;4.20;;